sensor_id;sensor_type;location;lat;lon;timestamp;pressure;altitude;pressure_sealevel;temperature;humidity
76687;BME280;65615;47.378;19.344;2023-08-07T04:22:53;99464.03;;;15.33;100.00
76687;BME280;65615;47.378;19.344;2023-08-07T04:26:57;99472.03;;;15.33;100.00
76687;BME280;65615;47.378;19.344;2023-08-07T04:31:00;99472.63;;;15.35;100.00
76687;BME280;65615;47.378;19.344;2023-08-07T04:35:06;99485.94;;;15.35;100.00
76687;BME280;65615;47.378;19.344;2023-08-07T04:39:09;99480.63;;;15.35;100.00
76687;BME280;65615;47.378;19.344;2023-08-07T04:43:13;99478.59;;;15.31;100.00
76687;BME280;65615;47.378;19.344;2023-08-07T04:47:16;99479.81;;;15.28;100.00
76687;BME280;65615;47.378;19.344;2023-08-07T04:51:20;99478.38;;;15.46;100.00
76687;BME280;65615;47.378;19.344;2023-08-07T04:55:23;99476.34;;;15.34;100.00
76687;BME280;65615;47.378;19.344;2023-08-07T04:59:26;99474.69;;;15.53;100.00
76687;BME280;65615;47.378;19.344;2023-08-07T05:03:31;99482.06;;;15.51;100.00
76687;BME280;65615;47.378;19.344;2023-08-07T05:07:35;99481.22;;;15.64;100.00
76687;BME280;65615;47.378;19.344;2023-08-07T05:11:37;99477.94;;;15.68;100.00
76687;BME280;65615;47.378;19.344;2023-08-07T05:15:40;99487.91;;;15.86;100.00
76687;BME280;65615;47.378;19.344;2023-08-07T05:19:43;99489.94;;;15.97;100.00
76687;BME280;65615;47.378;19.344;2023-08-07T05:23:46;99483.34;;;15.99;100.00
76687;BME280;65615;47.378;19.344;2023-08-07T05:27:50;99495.78;;;16.25;100.00
76687;BME280;65615;47.378;19.344;2023-08-07T05:31:53;99498.28;;;16.58;100.00
76687;BME280;65615;47.378;19.344;2023-08-07T05:35:56;99497.59;;;16.69;100.00
76687;BME280;65615;47.378;19.344;2023-08-07T05:39:59;99499.84;;;16.72;100.00
76687;BME280;65615;47.378;19.344;2023-08-07T05:44:02;99508.66;;;16.72;100.00
76687;BME280;65615;47.378;19.344;2023-08-07T05:48:06;99512.78;;;16.68;100.00
76687;BME280;65615;47.378;19.344;2023-08-07T05:52:09;99507.03;;;16.71;100.00
76687;BME280;65615;47.378;19.344;2023-08-07T05:56:12;99522.91;;;16.91;100.00
76687;BME280;65615;47.378;19.344;2023-08-07T06:00:15;99514.53;;;17.12;100.00
76687;BME280;65615;47.378;19.344;2023-08-07T06:04:21;99522.91;;;17.16;100.00
76687;BME280;65615;47.378;19.344;2023-08-07T06:08:24;99522.22;;;17.27;100.00
76687;BME280;65615;47.378;19.344;2023-08-07T06:12:27;99530.19;;;17.33;100.00
76687;BME280;65615;47.378;19.344;2023-08-07T06:16:30;99529.22;;;17.52;100.00
76687;BME280;65615;47.378;19.344;2023-08-07T06:20:34;99534.50;;;17.59;100.00
76687;BME280;65615;47.378;19.344;2023-08-07T06:24:37;99537.31;;;17.64;100.00
76687;BME280;65615;47.378;19.344;2023-08-07T06:28:42;99530.16;;;17.58;99.93
76687;BME280;65615;47.378;19.344;2023-08-07T06:32:45;99541.72;;;17.52;96.19
76687;BME280;65615;47.378;19.344;2023-08-07T06:36:48;99550.66;;;17.64;92.37
76687;BME280;65615;47.378;19.344;2023-08-07T06:40:51;99561.81;;;17.61;92.12
76687;BME280;65615;47.378;19.344;2023-08-07T06:44:54;99562.69;;;17.55;88.79
76687;BME280;65615;47.378;19.344;2023-08-07T06:48:56;99565.84;;;17.88;91.12
76687;BME280;65615;47.378;19.344;2023-08-07T06:52:59;99571.72;;;17.97;88.65
76687;BME280;65615;47.378;19.344;2023-08-07T06:57:02;99566.84;;;17.94;85.90
76687;BME280;65615;47.378;19.344;2023-08-07T07:01:06;99568.41;;;18.19;87.75
76687;BME280;65615;47.378;19.344;2023-08-07T07:05:09;99563.78;;;18.44;86.33
76687;BME280;65615;47.378;19.344;2023-08-07T07:09:12;99565.63;;;18.62;85.48
76687;BME280;65615;47.378;19.344;2023-08-07T07:13:18;99568.00;;;18.52;84.59
76687;BME280;65615;47.378;19.344;2023-08-07T07:17:21;99579.09;;;18.37;80.58
76687;BME280;65615;47.378;19.344;2023-08-07T07:21:24;99570.53;;;18.29;86.86
76687;BME280;65615;47.378;19.344;2023-08-07T07:25:27;99583.53;;;18.07;82.20
76687;BME280;65615;47.378;19.344;2023-08-07T07:29:30;99593.09;;;17.97;82.56
76687;BME280;65615;47.378;19.344;2023-08-07T07:33:33;99588.59;;;18.33;86.70
76687;BME280;65615;47.378;19.344;2023-08-07T07:37:41;99595.25;;;18.42;83.81
76687;BME280;65615;47.378;19.344;2023-08-07T07:41:44;99593.38;;;18.49;84.29
76687;BME280;65615;47.378;19.344;2023-08-07T07:45:47;99604.03;;;18.86;83.42
76687;BME280;65615;47.378;19.344;2023-08-07T07:50:05;99597.91;;;19.08;82.16
76687;BME280;65615;47.378;19.344;2023-08-07T07:54:10;99610.31;;;19.21;77.62
76687;BME280;65615;47.378;19.344;2023-08-07T07:58:16;99619.50;;;19.25;78.96
76687;BME280;65615;47.378;19.344;2023-08-07T08:02:19;99623.69;;;19.21;77.10
76687;BME280;65615;47.378;19.344;2023-08-07T08:06:23;99619.72;;;19.41;77.76
76687;BME280;65615;47.378;19.344;2023-08-07T08:10:26;99625.69;;;19.55;80.55
76687;BME280;65615;47.378;19.344;2023-08-07T08:14:29;99623.84;;;19.90;73.64
76687;BME280;65615;47.378;19.344;2023-08-07T08:18:49;99632.25;;;20.05;76.94
76687;BME280;65615;47.378;19.344;2023-08-07T08:22:52;99630.63;;;20.27;76.19
76687;BME280;65615;47.378;19.344;2023-08-07T08:26:54;99630.78;;;20.61;75.08
76687;BME280;65615;47.378;19.344;2023-08-07T08:30:58;99636.78;;;20.91;76.05
76687;BME280;65615;47.378;19.344;2023-08-07T08:35:01;99640.84;;;20.93;71.35
76687;BME280;65615;47.378;19.344;2023-08-07T08:39:04;99634.53;;;20.60;69.83
76687;BME280;65615;47.378;19.344;2023-08-07T08:43:07;99637.22;;;19.67;66.88
76687;BME280;65615;47.378;19.344;2023-08-07T08:47:13;99642.59;;;19.90;67.58
76687;BME280;65615;47.378;19.344;2023-08-07T08:51:17;99646.94;;;19.91;64.62
76687;BME280;65615;47.378;19.344;2023-08-07T08:55:24;99644.72;;;20.34;63.69
76687;BME280;65615;47.378;19.344;2023-08-07T08:59:28;99640.31;;;20.80;60.85
76687;BME280;65615;47.378;19.344;2023-08-07T09:03:31;99648.63;;;20.67;58.85
76687;BME280;65615;47.378;19.344;2023-08-07T09:07:34;99642.03;;;20.34;58.87
76687;BME280;65615;47.378;19.344;2023-08-07T09:11:38;99651.63;;;20.42;62.21
76687;BME280;65615;47.378;19.344;2023-08-07T09:15:41;99651.37;;;20.44;62.40
76687;BME280;65615;47.378;19.344;2023-08-07T09:19:53;99656.16;;;20.42;61.32
76687;BME280;65615;47.378;19.344;2023-08-07T09:23:55;99660.69;;;20.06;62.12
76687;BME280;65615;47.378;19.344;2023-08-07T09:28:01;99663.97;;;20.31;65.01
76687;BME280;65615;47.378;19.344;2023-08-07T09:32:13;99668.28;;;19.98;60.96
76687;BME280;65615;47.378;19.344;2023-08-07T09:36:16;99664.63;;;19.69;61.02
76687;BME280;65615;47.378;19.344;2023-08-07T09:40:20;99662.53;;;19.71;61.48
76687;BME280;65615;47.378;19.344;2023-08-07T09:44:23;99668.97;;;19.82;60.31
76687;BME280;65615;47.378;19.344;2023-08-07T09:48:26;99668.03;;;20.11;60.56
76687;BME280;65615;47.378;19.344;2023-08-07T09:52:30;99674.22;;;20.11;60.35
76687;BME280;65615;47.378;19.344;2023-08-07T09:56:35;99671.31;;;20.24;57.83
76687;BME280;65615;47.378;19.344;2023-08-07T10:00:39;99666.41;;;20.96;56.77
76687;BME280;65615;47.378;19.344;2023-08-07T10:04:42;99665.78;;;21.17;54.77
76687;BME280;65615;47.378;19.344;2023-08-07T10:08:49;99676.41;;;22.02;55.13
76687;BME280;65615;47.378;19.344;2023-08-07T10:12:53;99682.84;;;22.00;57.06
76687;BME280;65615;47.378;19.344;2023-08-07T10:16:56;99692.91;;;21.88;54.68
76687;BME280;65615;47.378;19.344;2023-08-07T10:21:01;99704.63;;;22.16;53.09
76687;BME280;65615;47.378;19.344;2023-08-07T10:25:06;99684.03;;;20.41;56.74
76687;BME280;65615;47.378;19.344;2023-08-07T10:29:11;99710.19;;;19.69;62.50
76687;BME280;65615;47.378;19.344;2023-08-07T10:33:15;99694.88;;;20.46;58.06
76687;BME280;65615;47.378;19.344;2023-08-07T10:37:40;99706.66;;;21.47;54.11
76687;BME280;65615;47.378;19.344;2023-08-07T10:41:48;99698.13;;;21.22;56.57
76687;BME280;65615;47.378;19.344;2023-08-07T10:46:12;99703.13;;;21.30;55.02
76687;BME280;65615;47.378;19.344;2023-08-07T10:50:15;99706.06;;;22.07;55.75
76687;BME280;65615;47.378;19.344;2023-08-07T10:54:19;99711.16;;;21.86;52.80
76687;BME280;65615;47.378;19.344;2023-08-07T10:58:29;99701.50;;;21.90;54.00
76687;BME280;65615;47.378;19.344;2023-08-07T11:02:32;99696.25;;;21.67;52.05
76687;BME280;65615;47.378;19.344;2023-08-07T11:06:36;99699.00;;;21.56;53.90
76687;BME280;65615;47.378;19.344;2023-08-07T11:10:40;99706.69;;;22.47;55.45
76687;BME280;65615;47.378;19.344;2023-08-07T11:14:42;99702.31;;;21.74;53.64
76687;BME280;65615;47.378;19.344;2023-08-07T11:18:47;99707.19;;;22.44;51.96
76687;BME280;65615;47.378;19.344;2023-08-07T11:22:50;99706.03;;;21.73;52.12
76687;BME280;65615;47.378;19.344;2023-08-07T11:26:53;99707.38;;;22.21;54.88
76687;BME280;65615;47.378;19.344;2023-08-07T11:31:00;99714.69;;;21.75;54.09
76687;BME280;65615;47.378;19.344;2023-08-07T11:35:03;99708.19;;;20.29;57.27
76687;BME280;65615;47.378;19.344;2023-08-07T11:39:07;99715.25;;;20.00;60.01
76687;BME280;65615;47.378;19.344;2023-08-07T11:43:10;99724.09;;;21.05;60.13
76687;BME280;65615;47.378;19.344;2023-08-07T11:47:14;99716.69;;;20.49;56.91
76687;BME280;65615;47.378;19.344;2023-08-07T11:51:18;99729.50;;;20.59;58.50
76687;BME280;65615;47.378;19.344;2023-08-07T11:55:22;99725.53;;;21.36;57.06
76687;BME280;65615;47.378;19.344;2023-08-07T11:59:26;99746.19;;;21.91;60.60
76687;BME280;65615;47.378;19.344;2023-08-07T12:03:32;99763.41;;;21.62;55.92
76687;BME280;65615;47.378;19.344;2023-08-07T12:07:38;99762.06;;;20.62;57.69
76687;BME280;65615;47.378;19.344;2023-08-07T12:11:41;99761.47;;;21.06;55.40
76687;BME280;65615;47.378;19.344;2023-08-07T12:15:44;99774.22;;;21.39;58.12
76687;BME280;65615;47.378;19.344;2023-08-07T12:19:47;99776.41;;;20.91;58.63
76687;BME280;65615;47.378;19.344;2023-08-07T12:23:56;99777.81;;;21.05;59.22
76687;BME280;65615;47.378;19.344;2023-08-07T12:27:59;99778.47;;;19.78;60.51
76687;BME280;65615;47.378;19.344;2023-08-07T12:32:02;99784.09;;;19.11;63.39
76687;BME280;65615;47.378;19.344;2023-08-07T12:36:05;99780.97;;;19.91;65.99
76687;BME280;65615;47.378;19.344;2023-08-07T12:40:22;99793.16;;;19.46;63.19
76687;BME280;65615;47.378;19.344;2023-08-07T12:44:30;99791.53;;;19.09;65.23
76687;BME280;65615;47.378;19.344;2023-08-07T12:48:34;99802.69;;;19.06;67.19
76687;BME280;65615;47.378;19.344;2023-08-07T12:52:36;99796.94;;;18.84;66.12
76687;BME280;65615;47.378;19.344;2023-08-07T12:56:39;99793.47;;;18.84;65.00
76687;BME280;65615;47.378;19.344;2023-08-07T13:00:43;99800.44;;;19.57;62.89
76687;BME280;65615;47.378;19.344;2023-08-07T13:04:46;99789.09;;;19.43;62.26
76687;BME280;65615;47.378;19.344;2023-08-07T13:08:49;99783.19;;;18.81;66.09
76687;BME280;65615;47.378;19.344;2023-08-07T13:12:53;99789.44;;;18.93;65.61
76687;BME280;65615;47.378;19.344;2023-08-07T13:16:57;99790.69;;;19.08;64.97
76687;BME280;65615;47.378;19.344;2023-08-07T13:21:01;99793.06;;;19.82;62.14
76687;BME280;65615;47.378;19.344;2023-08-07T13:25:04;99793.25;;;19.39;64.79
76687;BME280;65615;47.378;19.344;2023-08-07T13:29:08;99790.50;;;18.92;68.58
76687;BME280;65615;47.378;19.344;2023-08-07T13:33:11;99791.97;;;19.42;64.21
76687;BME280;65615;47.378;19.344;2023-08-07T13:37:14;99799.69;;;20.09;63.66
76687;BME280;65615;47.378;19.344;2023-08-07T13:41:17;99795.72;;;19.71;65.48
76687;BME280;65615;47.378;19.344;2023-08-07T13:45:21;99823.41;;;19.94;61.32
76687;BME280;65615;47.378;19.344;2023-08-07T13:49:23;99816.88;;;19.90;61.19
76687;BME280;65615;47.378;19.344;2023-08-07T13:53:26;99821.28;;;19.55;63.75
76687;BME280;65615;47.378;19.344;2023-08-07T13:57:31;99822.34;;;19.18;64.06
76687;BME280;65615;47.378;19.344;2023-08-07T14:01:36;99843.63;;;18.45;67.30
76687;BME280;65615;47.378;19.344;2023-08-07T14:05:39;99853.16;;;18.28;70.76
76687;BME280;65615;47.378;19.344;2023-08-07T14:09:41;99852.41;;;18.21;69.53
76687;BME280;65615;47.378;19.344;2023-08-07T14:13:45;99852.19;;;17.92;70.93
76687;BME280;65615;47.378;19.344;2023-08-07T14:17:49;99866.53;;;17.97;75.10
76687;BME280;65615;47.378;19.344;2023-08-07T14:21:52;99855.56;;;17.74;73.58
76687;BME280;65615;47.378;19.344;2023-08-07T14:25:55;99861.03;;;17.35;73.98
76687;BME280;65615;47.378;19.344;2023-08-07T14:29:58;99861.06;;;17.28;76.33
76687;BME280;65615;47.378;19.344;2023-08-07T14:34:01;99855.63;;;17.48;78.96
76687;BME280;65615;47.378;19.344;2023-08-07T14:38:04;99862.59;;;17.62;78.95
76687;BME280;65615;47.378;19.344;2023-08-07T14:42:07;99856.87;;;17.96;77.73
76687;BME280;65615;47.378;19.344;2023-08-07T14:46:10;99852.81;;;18.18;76.51
76687;BME280;65615;47.378;19.344;2023-08-07T14:50:13;99859.44;;;18.47;71.69
76687;BME280;65615;47.378;19.344;2023-08-07T14:54:18;99860.34;;;18.65;72.36
76687;BME280;65615;47.378;19.344;2023-08-07T14:58:21;99865.34;;;18.24;74.32
76687;BME280;65615;47.378;19.344;2023-08-07T15:02:25;99855.34;;;18.38;77.26
76687;BME280;65615;47.378;19.344;2023-08-07T15:06:28;99860.84;;;17.87;76.60
76687;BME280;65615;47.378;19.344;2023-08-07T15:10:33;99863.09;;;17.33;77.35
76687;BME280;65615;47.378;19.344;2023-08-07T15:14:37;99876.09;;;17.10;80.03
76687;BME280;65615;47.378;19.344;2023-08-07T15:18:40;99872.19;;;17.06;81.87
